createdAt,value
2023-03-31T00:00:23.102Z,62.69
2023-03-31T00:02:49.287Z,62.78
2023-03-31T00:05:15.462Z,62.78
2023-03-31T00:07:41.634Z,62.48
2023-03-31T00:10:17.241Z,62.54
2023-03-31T00:12:44.911Z,62.71
2023-03-31T00:15:11.088Z,62.45
2023-03-31T00:17:37.209Z,62.53
2023-03-31T00:20:03.386Z,62.59
2023-03-31T00:22:29.493Z,62.48
2023-03-31T00:24:55.607Z,62.53
2023-03-31T00:27:21.729Z,62.43
2023-03-31T00:29:47.890Z,62.60
2023-03-31T00:32:14.092Z,62.59
2023-03-31T00:34:40.408Z,62.41
2023-03-31T00:37:06.513Z,62.54
2023-03-31T00:39:32.627Z,62.40
2023-03-31T00:41:58.766Z,62.68
2023-03-31T00:44:25.035Z,62.48
2023-03-31T00:46:51.235Z,62.68
2023-03-31T00:49:17.408Z,62.46
2023-03-31T00:51:43.500Z,62.42
2023-03-31T00:54:09.609Z,62.36
2023-03-31T00:56:35.723Z,62.59
2023-03-31T00:59:01.814Z,62.55
2023-03-31T01:01:27.983Z,62.63
2023-03-31T01:03:54.182Z,62.61
2023-03-31T01:06:20.361Z,62.43
2023-03-31T01:08:46.456Z,62.56
2023-03-31T01:11:12.594Z,62.49
2023-03-31T01:13:38.685Z,62.57
2023-03-31T01:16:05.191Z,62.59
2023-03-31T01:18:31.483Z,62.56
2023-03-31T01:20:57.621Z,62.72
2023-03-31T01:23:23.731Z,62.74
2023-03-31T01:25:49.850Z,62.67
2023-03-31T01:28:15.959Z,62.67
2023-03-31T01:30:42.058Z,62.64
2023-03-31T01:33:08.759Z,62.77
2023-03-31T01:35:34.918Z,62.70
2023-03-31T01:38:01.052Z,62.53
2023-03-31T01:40:27.228Z,62.55
2023-03-31T01:42:53.370Z,62.55
2023-03-31T01:45:19.540Z,62.58
2023-03-31T01:47:45.690Z,62.59
2023-03-31T01:50:11.841Z,62.73
2023-03-31T01:52:37.952Z,62.45
2023-03-31T01:55:04.063Z,62.65
2023-03-31T01:57:30.238Z,62.58
2023-03-31T01:59:56.378Z,62.82
2023-03-31T02:02:22.776Z,62.57
2023-03-31T02:04:48.994Z,62.69
2023-03-31T02:07:15.120Z,62.64
2023-03-31T02:09:41.250Z,62.88
2023-03-31T02:12:07.416Z,62.59
2023-03-31T02:14:33.546Z,62.47
2023-03-31T02:16:59.671Z,62.59
2023-03-31T02:19:25.849Z,62.41
2023-03-31T02:21:51.970Z,62.70
2023-03-31T02:24:18.085Z,62.83
2023-03-31T02:26:44.187Z,62.75
2023-03-31T02:29:10.292Z,62.67
2023-03-31T02:31:36.439Z,62.48
2023-03-31T02:34:02.576Z,62.63
2023-03-31T02:36:28.723Z,62.73
2023-03-31T02:38:54.903Z,62.80
2023-03-31T02:41:21.043Z,62.77
2023-03-31T02:43:47.161Z,62.64
2023-03-31T02:46:13.342Z,62.74
2023-03-31T02:48:39.507Z,62.74
2023-03-31T02:51:05.615Z,62.76
2023-03-31T02:53:31.756Z,62.61
2023-03-31T02:55:57.908Z,62.92
2023-03-31T02:58:24.065Z,62.63
2023-03-31T03:00:50.292Z,62.75
2023-03-31T03:03:16.453Z,62.80
2023-03-31T03:05:42.762Z,62.79
2023-03-31T03:08:08.994Z,62.62
2023-03-31T03:10:35.099Z,62.55
2023-03-31T03:13:01.265Z,62.77
2023-03-31T03:15:27.401Z,62.90
2023-03-31T03:17:53.548Z,62.77
2023-03-31T03:20:19.700Z,62.65
2023-03-31T03:22:45.819Z,62.75
2023-03-31T03:25:12.074Z,62.61
2023-03-31T03:27:38.233Z,62.75
2023-03-31T03:30:04.345Z,62.90
2023-03-31T03:32:30.520Z,62.66
2023-03-31T03:34:56.661Z,62.65
2023-03-31T03:37:22.862Z,62.69
2023-03-31T03:39:48.973Z,62.67
2023-03-31T03:42:15.081Z,62.63
2023-03-31T03:44:41.220Z,62.66
2023-03-31T03:47:07.399Z,62.63
2023-03-31T03:49:33.519Z,62.65
2023-03-31T03:51:59.662Z,62.62
2023-03-31T03:54:25.824Z,62.66
2023-03-31T03:56:52.000Z,62.79
2023-03-31T03:59:18.171Z,62.85
2023-03-31T04:01:44.347Z,62.65
2023-03-31T04:04:10.495Z,62.61
2023-03-31T04:06:36.913Z,62.83
2023-03-31T04:09:03.088Z,62.69
2023-03-31T04:11:29.199Z,62.69
2023-03-31T04:13:55.366Z,62.71
2023-03-31T04:16:21.576Z,62.66
2023-03-31T04:18:47.721Z,62.67
2023-03-31T04:21:13.880Z,62.67
2023-03-31T04:23:39.989Z,62.75
2023-03-31T04:26:06.248Z,62.83
2023-03-31T04:28:32.474Z,62.74
2023-03-31T04:30:58.595Z,62.79
2023-03-31T04:33:24.752Z,62.82
2023-03-31T04:35:50.923Z,62.88
2023-03-31T04:38:17.102Z,62.75
2023-03-31T04:40:43.226Z,62.58
2023-03-31T04:43:09.452Z,62.67
2023-03-31T04:45:35.652Z,62.67
2023-03-31T04:48:01.921Z,62.66
2023-03-31T04:50:28.045Z,62.87
2023-03-31T04:52:54.187Z,62.81
2023-03-31T04:55:20.360Z,62.65
2023-03-31T04:57:46.516Z,62.80
2023-03-31T05:00:12.674Z,62.82
2023-03-31T05:02:38.883Z,62.90
2023-03-31T05:05:05.043Z,62.73
2023-03-31T05:07:31.224Z,62.88
2023-03-31T05:09:57.323Z,62.71
2023-03-31T05:12:24.084Z,62.72
2023-03-31T05:14:50.252Z,62.69
2023-03-31T05:17:16.358Z,62.68
2023-03-31T05:19:42.490Z,62.77
2023-03-31T05:22:08.676Z,62.71
2023-03-31T05:24:34.820Z,62.88
2023-03-31T05:27:00.939Z,62.73
2023-03-31T05:29:27.031Z,62.81
2023-03-31T05:31:53.318Z,62.84
2023-03-31T05:34:19.548Z,62.65
2023-03-31T05:36:45.645Z,62.74
2023-03-31T05:39:11.792Z,62.67
2023-03-31T05:41:37.952Z,62.83
2023-03-31T05:44:04.088Z,62.81
2023-03-31T05:46:30.321Z,62.67
2023-03-31T05:48:56.480Z,62.79
2023-03-31T05:51:22.584Z,62.73
2023-03-31T05:53:48.714Z,62.78
2023-03-31T05:56:14.856Z,62.56
2023-03-31T05:58:40.995Z,62.69
2023-03-31T06:01:07.489Z,62.71
2023-03-31T06:03:33.965Z,62.79
2023-03-31T06:06:00.152Z,62.62
2023-03-31T06:08:26.273Z,62.71
2023-03-31T06:10:52.417Z,62.69
2023-03-31T06:13:18.576Z,62.90
2023-03-31T06:15:44.707Z,62.72
2023-03-31T06:18:11.012Z,62.90
2023-03-31T06:20:37.123Z,62.65
2023-03-31T06:23:03.246Z,62.77
2023-03-31T06:25:37.145Z,62.93
2023-03-31T06:28:06.550Z,62.69
2023-03-31T06:30:32.684Z,62.65
2023-03-31T06:32:58.855Z,62.88
2023-03-31T06:35:25.072Z,62.67
2023-03-31T06:37:51.210Z,62.82
2023-03-31T06:40:17.319Z,62.75
2023-03-31T06:42:43.472Z,62.79
2023-03-31T06:45:09.611Z,62.70
2023-03-31T06:47:35.784Z,62.71
2023-03-31T06:50:01.935Z,62.66
2023-03-31T06:52:28.244Z,62.81
2023-03-31T06:54:54.340Z,62.62
2023-03-31T06:57:20.511Z,62.70
2023-03-31T06:59:47.050Z,62.72
2023-03-31T07:02:13.197Z,62.75
2023-03-31T07:04:39.377Z,62.81
2023-03-31T07:07:05.533Z,62.74
2023-03-31T07:09:31.698Z,62.80
2023-03-31T07:11:57.853Z,62.70
2023-03-31T07:14:26.421Z,62.70
2023-03-31T07:16:52.589Z,62.64
2023-03-31T07:19:18.860Z,62.66
2023-03-31T07:21:45.032Z,62.77
2023-03-31T07:24:11.152Z,62.73
2023-03-31T07:26:37.264Z,62.83
2023-03-31T07:29:03.409Z,62.64
2023-03-31T07:31:29.537Z,62.64
2023-03-31T07:33:55.719Z,62.62
2023-03-31T07:36:22.247Z,62.69
2023-03-31T07:38:48.450Z,62.68
2023-03-31T07:41:14.645Z,62.49
2023-03-31T07:43:40.819Z,62.68
2023-03-31T07:46:07.186Z,62.53
2023-03-31T07:48:33.481Z,62.80
2023-03-31T07:50:59.597Z,62.66
2023-03-31T07:53:25.776Z,62.86
2023-03-31T07:55:51.929Z,62.78
2023-03-31T07:58:18.046Z,62.67
2023-03-31T08:00:44.147Z,62.55
2023-03-31T08:03:10.273Z,62.67
2023-03-31T08:05:36.497Z,62.68
2023-03-31T08:08:02.667Z,62.80
2023-03-31T08:10:28.839Z,62.48
2023-03-31T08:12:54.963Z,62.98
2023-03-31T08:15:21.106Z,62.67
2023-03-31T08:17:47.299Z,62.83
2023-03-31T08:20:13.517Z,62.63
2023-03-31T08:22:39.613Z,62.87
2023-03-31T08:25:05.739Z,62.63
2023-03-31T08:27:31.931Z,62.68
2023-03-31T08:29:58.050Z,62.64
2023-03-31T08:32:24.171Z,62.87
2023-03-31T08:34:50.363Z,62.63
2023-03-31T08:37:16.484Z,62.47
2023-03-31T08:39:42.588Z,62.86
2023-03-31T08:42:11.423Z,62.78
2023-03-31T08:44:38.798Z,62.85
2023-03-31T08:47:04.902Z,62.86
2023-03-31T08:49:31.036Z,62.63
2023-03-31T08:51:57.148Z,62.69
2023-03-31T08:54:23.266Z,62.69
2023-03-31T08:56:49.551Z,62.80
2023-03-31T08:59:15.685Z,62.49
2023-03-31T09:01:54.763Z,62.65
2023-03-31T09:04:22.921Z,62.56
2023-03-31T09:06:49.125Z,62.62
2023-03-31T09:09:15.228Z,62.84
2023-03-31T09:11:41.351Z,62.58
2023-03-31T09:14:07.522Z,62.70
2023-03-31T09:16:33.687Z,62.57
2023-03-31T09:19:00.197Z,62.88
2023-03-31T09:21:26.306Z,62.71
2023-03-31T09:23:52.459Z,62.55
2023-03-31T09:26:18.703Z,62.66
2023-03-31T09:28:44.806Z,62.56
2023-03-31T09:31:11.021Z,62.83
2023-03-31T09:33:37.209Z,62.90
2023-03-31T09:36:03.563Z,62.69
2023-03-31T09:38:29.794Z,62.70
2023-03-31T09:40:56.028Z,62.61
2023-03-31T09:43:22.164Z,62.63
2023-03-31T09:46:01.765Z,62.78
2023-03-31T09:48:34.440Z,62.71
2023-03-31T09:51:00.562Z,62.49
2023-03-31T09:53:26.704Z,62.75
2023-03-31T09:55:52.820Z,62.70
2023-03-31T09:58:18.930Z,62.65
2023-03-31T10:00:45.051Z,62.74
2023-03-31T10:03:11.255Z,62.53
2023-03-31T10:05:37.388Z,62.80
2023-03-31T10:08:03.508Z,62.66
2023-03-31T10:10:29.666Z,62.53
2023-03-31T10:12:55.796Z,62.50
2023-03-31T10:15:21.946Z,62.70
2023-03-31T10:20:17.145Z,62.53
2023-03-31T10:22:43.246Z,62.54
2023-03-31T10:25:10.372Z,62.39
2023-03-31T10:27:36.464Z,62.56
2023-03-31T10:30:02.693Z,62.47
2023-03-31T10:32:29.046Z,62.53
2023-03-31T10:34:55.592Z,62.57
2023-03-31T10:37:21.747Z,62.54
2023-03-31T10:39:47.910Z,62.67
2023-03-31T10:42:14.022Z,62.70
2023-03-31T10:44:40.119Z,62.68
2023-03-31T10:47:06.339Z,62.60
2023-03-31T10:49:32.499Z,62.56
2023-03-31T10:51:58.668Z,62.38
2023-03-31T10:54:24.800Z,62.66
2023-03-31T10:56:52.747Z,62.51
2023-03-31T10:59:20.105Z,62.44
2023-03-31T11:01:46.242Z,62.63
2023-03-31T11:04:12.372Z,62.48
2023-03-31T11:06:38.476Z,62.69
2023-03-31T11:09:04.719Z,62.46
2023-03-31T11:11:30.833Z,62.61
2023-03-31T11:13:57.009Z,62.47
2023-03-31T11:16:23.248Z,62.54
2023-03-31T11:18:49.401Z,62.49
2023-03-31T11:21:15.522Z,62.42
2023-03-31T11:23:41.678Z,62.54
2023-03-31T11:26:07.823Z,62.35
2023-03-31T11:28:33.917Z,62.67
2023-03-31T11:31:00.046Z,62.50
2023-03-31T11:33:26.216Z,62.69
2023-03-31T11:35:52.365Z,62.67
2023-03-31T11:38:18.499Z,62.68
2023-03-31T11:40:44.683Z,62.56
2023-03-31T11:43:10.810Z,62.86
2023-03-31T11:45:37.012Z,62.64
2023-03-31T11:48:05.463Z,62.73
2023-03-31T11:50:33.138Z,62.65
2023-03-31T11:52:59.302Z,62.77
2023-03-31T11:55:25.478Z,62.49
2023-03-31T11:57:51.634Z,62.61
2023-03-31T12:00:17.796Z,62.65
2023-03-31T12:02:44.056Z,62.69
2023-03-31T12:05:10.200Z,62.59
2023-03-31T12:07:36.417Z,62.60
2023-03-31T12:10:02.638Z,62.66
2023-03-31T12:12:28.898Z,62.55
2023-03-31T12:14:55.362Z,62.58
2023-03-31T12:17:21.566Z,62.52
2023-03-31T12:19:47.781Z,62.75
2023-03-31T12:22:13.932Z,62.63
2023-03-31T12:24:40.118Z,62.75
2023-03-31T12:27:06.300Z,62.74
2023-03-31T12:29:33.716Z,62.94
2023-03-31T12:31:59.915Z,62.51
2023-03-31T12:34:26.155Z,62.62
2023-03-31T12:36:54.868Z,62.51
2023-03-31T12:39:21.578Z,62.61
2023-03-31T12:41:47.783Z,62.64
2023-03-31T12:44:13.977Z,62.74
2023-03-31T12:46:40.219Z,62.78
2023-03-31T12:49:06.414Z,62.59
2023-03-31T12:51:32.535Z,62.61
2023-03-31T12:54:00.186Z,62.41
2023-03-31T12:56:26.826Z,62.83
2023-03-31T12:58:52.943Z,62.60
2023-03-31T13:01:19.166Z,62.59
2023-03-31T13:03:45.365Z,62.63
2023-03-31T13:06:11.498Z,62.69
2023-03-31T13:08:37.600Z,62.73
2023-03-31T13:11:03.848Z,62.58
2023-03-31T13:13:30.108Z,62.58
2023-03-31T13:15:56.221Z,62.66
2023-03-31T13:18:22.343Z,62.72
2023-03-31T13:20:48.616Z,62.65
2023-03-31T13:23:14.732Z,62.65
2023-03-31T13:25:40.867Z,62.70
2023-03-31T13:28:06.982Z,62.67
2023-03-31T13:30:33.082Z,62.79
2023-03-31T13:32:59.218Z,62.66
2023-03-31T13:35:25.564Z,62.66
2023-03-31T13:37:51.664Z,62.85
2023-03-31T13:40:17.757Z,62.87
2023-03-31T13:42:43.981Z,62.71
2023-03-31T13:45:10.163Z,62.86
2023-03-31T13:47:36.326Z,62.73
2023-03-31T13:50:02.476Z,62.90
2023-03-31T13:52:28.585Z,62.77
2023-03-31T13:54:54.685Z,62.78
2023-03-31T13:57:20.900Z,62.70
2023-03-31T13:59:47.031Z,62.80
2023-03-31T14:02:13.144Z,63.03
2023-03-31T14:04:39.263Z,62.99
2023-03-31T14:07:05.419Z,62.77
2023-03-31T14:09:31.529Z,62.69
2023-03-31T14:11:57.646Z,62.99
2023-03-31T14:14:23.786Z,63.01
2023-03-31T14:16:49.907Z,62.94
2023-03-31T14:19:16.057Z,62.64
2023-03-31T14:21:42.167Z,62.88
2023-03-31T14:24:08.272Z,62.72
2023-03-31T14:26:34.390Z,62.90
2023-03-31T14:29:00.500Z,62.84
2023-03-31T14:31:26.627Z,62.77
2023-03-31T14:33:52.843Z,62.80
2023-03-31T14:36:18.958Z,62.83
2023-03-31T14:38:45.073Z,62.88
2023-03-31T14:41:11.381Z,62.90
2023-03-31T14:43:37.580Z,63.29
2023-03-31T14:46:03.688Z,62.86
2023-03-31T14:48:29.821Z,63.05
2023-03-31T14:50:55.909Z,63.03
2023-03-31T14:53:22.011Z,62.85
2023-03-31T14:55:58.218Z,62.74
2023-03-31T14:58:25.442Z,62.91
2023-03-31T15:00:51.688Z,62.92
2023-03-31T15:03:17.821Z,63.05
2023-03-31T15:05:43.942Z,62.89
2023-03-31T15:08:10.071Z,62.90
2023-03-31T15:10:36.179Z,62.90
2023-03-31T15:13:02.293Z,62.87
2023-03-31T15:15:28.448Z,62.96
2023-03-31T15:17:54.612Z,62.90
2023-03-31T15:20:20.722Z,63.04
2023-03-31T15:22:46.892Z,63.08
2023-03-31T15:25:13.016Z,62.89
2023-03-31T15:27:39.158Z,62.90
2023-03-31T15:30:05.270Z,62.84
2023-03-31T15:32:31.619Z,62.80
2023-03-31T15:35:04.756Z,62.95
2023-03-31T15:37:37.585Z,63.06
2023-03-31T15:40:03.759Z,62.91
2023-03-31T15:42:29.880Z,62.82
2023-03-31T15:44:56.003Z,62.93
2023-03-31T15:47:22.243Z,62.92
2023-03-31T15:49:48.388Z,62.89
2023-03-31T15:52:14.498Z,63.12
2023-03-31T15:54:40.598Z,62.94
2023-03-31T15:57:06.774Z,62.92
2023-03-31T15:59:41.754Z,63.06
2023-03-31T16:02:17.726Z,63.05
2023-03-31T16:04:43.871Z,63.03
2023-03-31T16:07:09.992Z,63.19
2023-03-31T16:09:36.205Z,63.04
2023-03-31T16:12:02.528Z,63.00
2023-03-31T16:14:28.755Z,63.03
2023-03-31T16:16:54.845Z,62.93
2023-03-31T16:19:20.985Z,63.13
2023-03-31T16:21:47.128Z,62.90
2023-03-31T16:24:13.224Z,63.02
2023-03-31T16:26:39.375Z,62.98
2023-03-31T16:29:05.476Z,62.82
2023-03-31T16:31:31.619Z,62.87
2023-03-31T16:33:57.730Z,62.95
2023-03-31T16:36:25.676Z,62.96
2023-03-31T16:38:51.851Z,63.08
2023-03-31T16:41:18.423Z,62.86
2023-03-31T16:43:44.524Z,62.90
2023-03-31T16:46:10.677Z,63.09
2023-03-31T16:48:36.821Z,62.85
2023-03-31T16:51:02.954Z,63.01
2023-03-31T16:53:29.107Z,63.05
2023-03-31T16:55:55.232Z,62.90
2023-03-31T16:58:21.350Z,62.94
2023-03-31T17:00:47.518Z,62.89
2023-03-31T17:03:15.376Z,62.81
2023-03-31T17:05:41.549Z,62.85
2023-03-31T17:08:07.676Z,62.87
2023-03-31T17:10:33.803Z,62.81
2023-03-31T17:12:59.892Z,62.80
2023-03-31T17:15:26.011Z,62.93
2023-03-31T17:17:52.182Z,62.87
2023-03-31T17:20:18.344Z,62.79
2023-03-31T17:22:44.469Z,62.69
2023-03-31T17:25:10.588Z,62.81
2023-03-31T17:27:36.688Z,62.83
2023-03-31T17:30:02.911Z,62.69
2023-03-31T17:32:29.251Z,62.86
2023-03-31T17:34:55.518Z,62.73
2023-03-31T17:37:21.649Z,62.71
2023-03-31T17:39:47.853Z,62.72
2023-03-31T17:42:13.955Z,62.73
2023-03-31T17:44:40.090Z,62.78
2023-03-31T17:47:06.930Z,62.86
2023-03-31T17:49:33.110Z,62.70
2023-03-31T17:51:59.215Z,62.80
2023-03-31T17:54:25.405Z,62.94
2023-03-31T17:56:51.560Z,62.57
2023-03-31T17:59:17.755Z,62.83
2023-03-31T18:01:43.951Z,62.71
2023-03-31T18:04:10.359Z,62.81
2023-03-31T18:06:36.494Z,62.90
2023-03-31T18:09:02.649Z,62.57
2023-03-31T18:11:28.752Z,62.92
2023-03-31T18:13:54.898Z,62.60
2023-03-31T18:16:21.051Z,62.73
2023-03-31T18:18:47.177Z,62.66
2023-03-31T18:21:13.368Z,62.67
2023-03-31T18:23:39.520Z,62.51
2023-03-31T18:26:05.707Z,62.74
2023-03-31T18:28:31.846Z,62.88
2023-03-31T18:30:58.471Z,62.71
2023-03-31T18:33:24.722Z,62.68
2023-03-31T18:35:50.955Z,62.67
2023-03-31T18:38:17.146Z,62.62
2023-03-31T18:40:43.259Z,62.80
2023-03-31T18:43:09.412Z,62.68
2023-03-31T18:45:35.758Z,62.75
2023-03-31T18:48:02.125Z,62.72
2023-03-31T18:50:28.293Z,62.61
2023-03-31T18:52:54.807Z,62.56
2023-03-31T18:55:21.079Z,62.57
2023-03-31T18:57:47.235Z,62.77
2023-03-31T19:00:13.420Z,62.65
2023-03-31T19:02:39.706Z,62.83
2023-03-31T19:05:05.944Z,62.61
2023-03-31T19:07:32.064Z,62.60
2023-03-31T19:09:58.155Z,62.61
2023-03-31T19:12:24.281Z,62.70
2023-03-31T19:14:50.390Z,62.53
2023-03-31T19:17:16.489Z,62.52
2023-03-31T19:19:42.599Z,62.59
2023-03-31T19:22:08.712Z,62.63
2023-03-31T19:24:34.813Z,62.53
2023-03-31T19:27:00.951Z,62.49
2023-03-31T19:29:27.189Z,62.63
2023-03-31T19:31:53.352Z,62.68
2023-03-31T19:34:19.517Z,62.51
2023-03-31T19:36:45.688Z,62.60
2023-03-31T19:39:11.816Z,62.57
2023-03-31T19:41:38.093Z,62.38
2023-03-31T19:44:04.207Z,62.54
2023-03-31T19:46:30.431Z,62.53
2023-03-31T19:48:56.614Z,62.46
2023-03-31T19:51:22.741Z,62.54
2023-03-31T19:53:48.848Z,62.41
2023-03-31T19:56:14.947Z,62.60
2023-03-31T19:58:41.060Z,62.60
2023-03-31T20:01:07.266Z,62.37
2023-03-31T20:03:33.680Z,62.44
2023-03-31T20:06:00.125Z,62.69
2023-03-31T20:08:26.260Z,62.46
2023-03-31T20:10:52.451Z,62.66
2023-03-31T20:13:18.629Z,62.71
2023-03-31T20:15:44.731Z,62.50
2023-03-31T20:18:10.940Z,62.45
2023-03-31T20:20:37.091Z,62.68
2023-03-31T20:23:03.175Z,62.71
2023-03-31T20:25:29.701Z,62.61
2023-03-31T20:27:56.037Z,62.62
2023-03-31T20:30:22.137Z,62.58
2023-03-31T20:32:48.405Z,62.53
2023-03-31T20:35:14.618Z,62.48
2023-03-31T20:37:40.719Z,62.45
2023-03-31T20:40:06.830Z,62.48
2023-03-31T20:42:33.016Z,62.41
2023-03-31T20:44:59.120Z,62.47
2023-03-31T20:47:25.394Z,62.45
2023-03-31T20:49:51.603Z,62.43
2023-03-31T20:52:17.704Z,62.38
2023-03-31T20:54:43.830Z,62.59
2023-03-31T20:57:10.025Z,62.34
2023-03-31T20:59:36.171Z,62.55
2023-03-31T21:02:02.277Z,62.41
2023-03-31T21:04:28.423Z,62.39
2023-03-31T21:06:54.535Z,62.56
2023-03-31T21:09:20.754Z,62.49
2023-03-31T21:11:46.877Z,62.40
2023-03-31T21:14:13.009Z,62.41
2023-03-31T21:16:39.125Z,62.56
2023-03-31T21:19:05.251Z,62.47
2023-03-31T21:21:31.340Z,62.35
2023-03-31T21:23:57.441Z,62.35
2023-03-31T21:26:23.563Z,62.40
2023-03-31T21:28:49.646Z,62.63
2023-03-31T21:31:15.747Z,62.36
2023-03-31T21:33:41.854Z,62.43
2023-03-31T21:36:08.134Z,62.38
2023-03-31T21:38:34.290Z,62.38
2023-03-31T21:41:00.560Z,62.41
2023-03-31T21:43:26.658Z,62.38
2023-03-31T21:45:52.809Z,62.40
2023-03-31T21:48:18.956Z,62.43
2023-03-31T21:50:45.055Z,62.34
2023-03-31T21:53:11.161Z,62.51
2023-03-31T21:55:37.456Z,62.65
2023-03-31T21:58:03.647Z,62.53
2023-03-31T22:00:29.753Z,62.32
2023-03-31T22:03:10.837Z,62.46
2023-03-31T22:05:42.158Z,62.42
2023-03-31T22:08:11.163Z,62.43
2023-03-31T22:10:37.270Z,62.41
2023-03-31T22:13:03.387Z,62.48
2023-03-31T22:15:29.732Z,62.35
2023-03-31T22:17:55.958Z,62.44
2023-03-31T22:20:22.123Z,62.24
2023-03-31T22:22:48.393Z,62.48
2023-03-31T22:25:14.568Z,62.43
2023-03-31T22:27:43.749Z,62.76
2023-03-31T22:30:09.946Z,62.47
2023-03-31T22:32:36.095Z,62.27
2023-03-31T22:35:02.270Z,62.54
2023-03-31T22:37:28.417Z,62.42
2023-03-31T22:39:54.587Z,62.51
2023-03-31T22:42:20.713Z,62.51
2023-03-31T22:44:47.260Z,62.45
2023-03-31T22:47:13.422Z,62.51
2023-03-31T22:49:39.617Z,62.28
2023-03-31T22:52:05.748Z,62.58
2023-03-31T22:54:31.860Z,62.50
2023-03-31T22:56:58.105Z,62.52
2023-03-31T22:59:24.403Z,62.57
2023-03-31T23:01:50.773Z,62.55
2023-03-31T23:04:16.916Z,62.42
2023-03-31T23:06:43.108Z,62.35
2023-03-31T23:09:09.304Z,62.59
2023-03-31T23:11:35.407Z,62.33
2023-03-31T23:14:01.616Z,62.44
2023-03-31T23:16:27.752Z,62.60
2023-03-31T23:18:53.852Z,62.63
2023-03-31T23:21:20.063Z,62.44
2023-03-31T23:23:46.254Z,62.40
2023-03-31T23:26:12.396Z,62.60
2023-03-31T23:28:38.577Z,62.42
2023-03-31T23:31:04.692Z,62.43
2023-03-31T23:33:30.776Z,62.36
2023-03-31T23:35:56.920Z,62.78
2023-03-31T23:38:23.110Z,62.44
2023-03-31T23:40:49.374Z,62.40
2023-03-31T23:43:15.557Z,62.48
2023-03-31T23:45:41.764Z,62.70
2023-03-31T23:48:07.996Z,62.69
2023-03-31T23:50:34.205Z,62.54
2023-03-31T23:53:00.352Z,62.60
2023-03-31T23:55:26.561Z,62.45
2023-03-31T23:57:52.695Z,62.44
